Tiempo atmosférico en la estación meteorológica de San Andrés y Sauces, Santa Cruz de Tenerife (362 m.)



Fecha
DESCASC
Temp. máxima en grados centígrados (hora)
DESCASC
Temp. mínima en grados centígrados (hora)
DESCASC
Temp. media en grados centígrados
DESCASC
Racha de viento máxima en m/sg (hora)
DESCASC
Velocidad máxima media en intervalos de 10 minutos(hora)
DESCASC
Precipitaciones diarias en mm
DESCASC
Precipitaciones de 00:00 a 06:00 en mm
DESCASC
Precipitaciones de 06:00 a 12:00 en mm
DESCASC
Precipitaciones de 12:00 a 18:00 en mm
DESCASC
Precipitaciones de 18:00 a 24:00 en mm
DESCASC
15-07-2018 24 (15:10) 16.9 (05:20) 20.4 7.5 (23:20) 5 (13:20) 0 0 0 0 0
14-07-2018 24.9 (14:50) 16.3 (07:20) 20.6 6.94 (13:30) 4.44 (15:20) 0 0 0 0 0
13-07-2018 25 (14:30) 17.1 (06:00) 21.1 7.78 (11:20) 4.17 (12:10) 0 0 0 0 0
12-07-2018 22.5 (16:20) 17.5 (00:00) 20 8.06 (21:30) 5 (13:40) 0 0 0 0 0
11-07-2018 23 (16:30) 17.8 (00:00) 20.4 6.11 (22:00) 3.61 (14:40) 0 0 0 0 0
10-07-2018 24.7 (13:40) 16.7 (00:00) 20.7 5.28 (15:40) 3.33 (16:40) 0 0 0 0 0
09-07-2018 24.3 (14:50) 17.2 (00:00) 20.8 5.83 (02:30) 3.89 (07:30) 0 0 0 0 0
08-07-2018 23.1 (13:30) 16.6 (03:40) 19.9 7.22 (14:00) 4.44 (13:50) 0 0 0 0 0
07-07-2018 24.4 (12:50) 17 (00:00) 20.7 9.44 (15:30) 5.28 (08:20) 0 0 0 0 0
06-07-2018 22.4 (15:50) 17.7 (00:00) 20.1 7.5 (18:00) 5.28 (13:20) 0 0 0 0 0
05-07-2018 24.3 (16:00) 17.9 (07:00) 21.1 9.44 (15:30) 5.28 (15:40) 0 0 0 0 0
04-07-2018 23 (16:40) 17.6 (03:20) 20.3 8.33 (12:00) 5.28 (17:10) 0 0 0 0 0
03-07-2018 24.1 (16:30) 17.2 (02:50) 20.7 7.78 (14:40) 4.72 (02:50) 0 0 0 0 0
02-07-2018 21.7 (17:40) 16.3 (06:30) 19 6.11 (13:00) 4.44 (07:20) 0 0 0 0 0
01-07-2018 23.8 (14:40) 16.8 (00:00) 20.3 8.61 (13:20) 5.28 (15:10) 0 0 0 0 0
30-06-2018 21.7 (15:10) 17.4 (06:10) 19.6 11.11 (14:20) 6.67 (14:30) 0.2 0 0.2 0 0
29-06-2018 23.1 (13:30) 17.9 (00:00) 20.5 11.67 (08:20) 8.06 (13:40) 0.4 0 0 0.4 0
28-06-2018 24.6 (14:30) 16.8 (00:00) 20.7 10.56 (18:50) 7.5 (11:10) 0 0 0 0 0
27-06-2018 24.9 (15:00) 15.9 (00:00) 20.4 8.61 (14:30) 4.72 (14:30) 0 0 0 0 0
26-06-2018 24.1 (14:20) 16.5 (00:00) 20.3 7.22 (11:40) 4.17 (03:20) 0 0 0 0 0
25-06-2018 24.7 (15:10) 16.2 (00:00) 20.5 7.5 (16:30) 4.44 (14:10) 0 0 0 0 0
24-06-2018 24.3 (13:40) 15.4 (00:00) 19.8 6.39 (13:30) 3.89 (14:20) 0 0 0 0 0
23-06-2018 24.6 (12:40) 15.6 (00:00) 20.1 12.5 (08:50) 5.28 (13:30) 0 0 0 0 0
22-06-2018 21.6 (12:40) 15.9 (23:59) 18.8 6.94 (23:10) 4.17 (23:10) 0 0 0 0 0
21-06-2018 22.1 (15:20) 16.5 (00:00) 19.3 9.44 (16:10) 5 (13:20) 0 0 0 0 0
20-06-2018 22.2 (14:30) 16.6 (00:00) 19.4 10.83 (14:00) 6.94 (15:20) 0 0 0 0 0
19-06-2018 19.9 (13:30) 16.5 (00:00) 18.2 8.89 (18:10) 5.56 (17:50) 0 0 0 0 0
18-06-2018 20.3 (14:50) 15.5 (00:00) 17.9 7.22 (22:20) 4.72 (18:00) 0 0 0 0 0
17-06-2018 20.6 (13:40) 14.9 (00:00) 17.8 6.94 (09:10) 4.72 (23:50) 4 0 0 4 0

Gráficas

Temp. máximas Temp. mínimas Temp. medias Precipitaciones Rachas de viento máximas Velocidades máximas media en intervalos de 10 minutos

Datos horarios

Fecha y hora oficial Temperatura (ºC) Velocidad del viento (km/h) Dirección del viento Racha (km/h) Dirección de racha Precipitación (mm) Presión (hPa) Tendencia (hPa) Humedad (%)
2018-07-16 23:00:00 18.4 12 Sudoeste 18 Sudoeste 0 -- -- 76
2018-07-16 22:00:00 18.5 6 Sudoeste 10 Nordeste 0 -- -- 81
2018-07-16 21:00:00 19.1 6 Norte 16 Nordeste 0 -- -- 80
2018-07-16 20:00:00 20.1 12 Este 17 Este 0 -- -- 78
2018-07-16 19:00:00 21 6 Nordeste 17 Nordeste 0 -- -- 76
2018-07-16 18:00:00 21.1 5 Nordeste 23 Nordeste 0 -- -- 72
2018-07-16 17:00:00 21.8 10 Este 24 Sudoeste 0 -- -- 64
2018-07-16 16:00:00 22.9 10 Nordeste 28 Nordeste 0 -- -- 60
2018-07-16 15:00:00 22.1 10 Nordeste 19 Este 0 -- -- 68
2018-07-16 14:00:00 22.5 9 Nordeste 22 Nordeste 0 -- -- 64
2018-07-16 13:00:00 22.7 5 Sur 25 Este 0 -- -- 58
2018-07-16 12:00:00 22.4 10 Nordeste 21 Este 0 -- -- 62
2018-07-16 11:00:00 19.5 8 Norte 19 Nordeste 0 -- -- 78
2018-07-16 10:00:00 18.2 12 Nordeste 19 Nordeste 0.2 -- -- 89
2018-07-16 09:00:00 18.4 8 Nordeste 23 Sudoeste 0 -- -- 84
2018-07-16 08:00:00 18.3 4 Este 9 Este 0 -- -- 86
2018-07-16 07:00:00 18 3 Nordeste 28 Sudoeste 0 -- -- 83
2018-07-16 06:00:00 17.6 16 Sudoeste 24 Sudoeste 0 -- -- 73
2018-07-16 05:00:00 17.9 3 Sudoeste 17 Sudoeste 0 -- -- 82
2018-07-16 04:00:00 18 5 Sur 17 Sudoeste 0 -- -- 80
2018-07-16 03:00:00 18.4 14 Sudoeste 28 Sudoeste 0 -- -- 70
2018-07-16 02:00:00 18.1 17 Sudoeste 29 Sudoeste 0 -- -- 76
2018-07-16 01:00:00 17.6 15 Sudoeste 20 Sudoeste 0 -- -- 79
2018-07-16 00:00:00 18.5 5 Sur 27 Sur 0 -- -- 73
2018-07-15 23:00:00 18 13 Sudoeste 17 Sudoeste 0 -- -- 71
2018-07-15 22:00:00 18.2 12 Sudoeste 17 Sudoeste 0 -- -- 76
2018-07-15 21:00:00 19.1 7 Este 15 Este 0 -- -- 77
2018-07-15 20:00:00 20.6 7 Este 16 Nordeste 0 -- -- 69
2018-07-15 19:00:00 21 5 Sudeste 21 Nordeste 0 -- -- 69
2018-07-15 18:00:00 21.5 12 Nordeste 22 Este 0 -- -- 72
2018-07-15 17:00:00 22.6 7 Este 24 Este 0 -- -- 64
2018-07-15 16:00:00 22.9 9 Este 25 Este 0 -- -- 62
2018-07-15 15:00:00 23.9 15 Este 24 Este 0 -- -- 63
2018-07-15 14:00:00 22.5 16 Nordeste 24 Nordeste 0 -- -- 69
2018-07-15 13:00:00 21.1 13 Nordeste 20 Este 0 -- -- 76
2018-07-15 12:00:00 22.1 10 Nordeste 19 Nordeste 0 -- -- 72
2018-07-15 11:00:00 20.3 9 Nordeste 17 Nordeste 0 -- -- 74
2018-07-15 10:00:00 20.7 7 Nordeste 14 Norte 0 -- -- 66
2018-07-15 09:00:00 19.5 5 Oeste 11 Sudoeste 0 -- -- 71
2018-07-15 08:00:00 18.3 5 Nordeste 10 Sudoeste 0 -- -- 83
2018-07-15 07:00:00 17.7 6 Sudoeste 18 Sudoeste 0 -- -- 75
2018-07-15 06:00:00 17.4 12 Sudoeste 17 Sudoeste 0 -- -- 74
2018-07-15 05:00:00 17.1 6 Sudoeste 14 Sudoeste 0 -- -- 76
2018-07-15 04:00:00 17.3 7 Sudoeste 15 Sudoeste 0 -- -- 73
2018-07-15 03:00:00 17.3 10 Sudoeste 17 Oeste 0 -- -- 80
2018-07-15 02:00:00 17.8 6 Sudoeste 13 Sudoeste 0 -- -- 83
2018-07-15 01:00:00 17.8 6 Sudoeste 14 Sudoeste 0 -- -- 80
2018-07-15 00:00:00 18.2 3 Sur 7 Sudoeste 0 -- -- 83
2018-07-14 23:00:00 18.2 6 Oeste 15 Oeste 0 -- -- 74
2018-07-14 22:00:00 17.9 4 Sudoeste 10 Oeste 0 -- -- 81
2018-07-14 21:00:00 19.1 2 Sudeste 8 Nordeste 0 -- -- 80
2018-07-14 20:00:00 20.3 5 Norte 17 Norte 0 -- -- 73
2018-07-14 19:00:00 21.6 9 Nordeste 19 Nordeste 0 -- -- 69
2018-07-14 18:00:00 22.2 8 Nordeste 19 Este 0 -- -- 64
2018-07-14 17:00:00 23.8 11 Nordeste 21 Este 0 -- -- 63
2018-07-14 16:00:00 24.3 14 Este 25 Nordeste 0 -- -- 58
2018-07-14 15:00:00 24.1 15 Nordeste 24 Nordeste 0 -- -- 60
2018-07-14 14:00:00 24.2 14 Nordeste 25 Este 0 -- -- 60
2018-07-14 13:00:00 23.8 13 Nordeste 22 Este 0 -- -- 63
2018-07-14 12:00:00 22.7 11 Nordeste 19 Nordeste 0 -- -- 61
2018-07-14 11:00:00 23.2 13 Nordeste 17 Este 0 -- -- 66
2018-07-14 10:00:00 22.2 10 Nordeste 15 Nordeste 0 -- -- 64
2018-07-14 09:00:00 20.5 5 Norte 12 Sudoeste 0 -- -- 70
2018-07-14 08:00:00 16.9 8 Sudoeste 15 Sudoeste 0 -- -- 80
2018-07-14 07:00:00 16.4 6 Oeste 14 Sudoeste 0 -- -- 75
2018-07-14 06:00:00 16.9 9 Oeste 15 Oeste 0 -- -- 71
2018-07-14 05:00:00 16.7 8 Oeste 13 Sudoeste 0 -- -- 72
2018-07-14 04:00:00 16.9 8 Oeste 13 Oeste 0 -- -- 71
2018-07-14 03:00:00 17.1 8 Oeste 15 Sudoeste 0 -- -- 72
2018-07-14 02:00:00 17.3 11 Sudoeste 15 Sudoeste 0 -- -- 72
2018-07-14 01:00:00 17.2 7 Sudoeste 10 Sudoeste 0 -- -- 78
2018-07-14 00:00:00 17.5 5 Sudoeste 12 Oeste 0 -- -- 72
2018-07-13 23:00:00 17.5 6 Sudoeste 15 Sudoeste 0 -- -- 72
2018-07-13 22:00:00 17.8 9 Oeste 12 Oeste 0 -- -- 72
2018-07-13 21:00:00 18.9 2 Oeste 8 Nordeste 0 -- -- 78
2018-07-13 20:00:00 20.4 6 Nordeste 12 Norte 0 -- -- 71
2018-07-13 19:00:00 22.3 7 Este 18 Este 0 -- -- 54
2018-07-13 18:00:00 23.2 8 Este 19 Este 0 -- -- 55
2018-07-13 17:00:00 23.9 10 Este 22 Este 0 -- -- 55
2018-07-13 16:00:00 23.5 9 Este 21 Nordeste 0 -- -- 56
2018-07-13 15:00:00 24.3 11 Este 24 Nordeste 0 -- -- 59
2018-07-13 14:00:00 24.5 9 Este 24 Este 0 -- -- 49
2018-07-13 13:00:00 24 9 Este 24 Nordeste 0 -- -- 47
2018-07-13 12:00:00 24.2 12 Este 28 Este 0 -- -- 49
2018-07-13 11:00:00 22.7 8 Este 17 Este 0 -- -- 56
2018-07-13 10:00:00 21.6 9 Nordeste 19 Nordeste 0 -- -- 61
2018-07-13 09:00:00 19.4 3 Norte 12 Sudoeste 0 -- -- 71
2018-07-13 08:00:00 17.9 6 Oeste 16 Sudoeste 0 -- -- 75
2018-07-13 07:00:00 17.5 9 Sudoeste 18 Oeste 0 -- -- 78
2018-07-13 06:00:00 17.1 6 Oeste 18 Sudoeste 0 -- -- 75
2018-07-13 05:00:00 17.7 12 Oeste 19 Sudoeste 0 -- -- 74
2018-07-13 04:00:00 17.5 4 Oeste 17 Oeste 0 -- -- 76
2018-07-13 03:00:00 18 10 Sudoeste 22 Sudoeste 0 -- -- 75
2018-07-13 02:00:00 17.7 3 Oeste 25 Sudoeste 0 -- -- 76
2018-07-13 01:00:00 18.2 12 Sudoeste 23 Sudoeste 0 -- -- 71
2018-07-13 00:00:00 18 7 Sur 22 Sudoeste 0 -- -- 74
2018-07-12 23:00:00 17.6 7 Oeste 14 Norte 0 -- -- 75
2018-07-12 22:00:00 18.2 5 Norte 29 Sudoeste 0 -- -- 73
2018-07-12 21:00:00 18.4 5 Noroeste 9 Norte 0 -- -- 79
2018-07-12 20:00:00 19.2 6 Norte 13 Norte 0 -- -- 77
2018-07-12 19:00:00 19.5 7 Nordeste 17 Nordeste 0 -- -- 79
2018-07-12 18:00:00 20.8 10 Este 20 Este 0 -- -- 73
2018-07-12 17:00:00 21.4 10 Este 21 Nordeste 0 -- -- 72
2018-07-12 16:00:00 21.7 11 Este 21 Este 0 -- -- 71
2018-07-12 15:00:00 21.3 13 Este 19 Este 0 -- -- 71
2018-07-12 14:00:00 21.7 12 Este 25 Este 0 -- -- 69
2018-07-12 13:00:00 21.8 15 Este 24 Nordeste 0 -- -- 72
2018-07-12 12:00:00 20.5 10 Nordeste 19 Este 0 -- -- 76
2018-07-12 11:00:00 19.4 10 Este 17 Nordeste 0 -- -- 81
2018-07-12 10:00:00 19.6 5 Sudeste 20 Nordeste 0 -- -- 78
2018-07-12 09:00:00 20 5 Este 14 Sudoeste 0 -- -- 71
2018-07-12 08:00:00 18.4 6 Noroeste 18 Sudoeste 0 -- -- 81
2018-07-12 07:00:00 18.4 4 Norte 22 Sudoeste 0 -- -- 80
2018-07-12 06:00:00 18.2 5 Norte 12 Oeste 0 -- -- 85
2018-07-12 05:00:00 18.3 3 Noroeste 10 Oeste 0 -- -- 84
2018-07-12 04:00:00 18.3 4 Oeste 9 Oeste 0 -- -- 86
2018-07-12 03:00:00 18.4 4 Este 14 Nordeste 0 -- -- 87
2018-07-12 02:00:00 18.4 9 Nordeste 14 Nordeste 0 -- -- 88
2018-07-12 01:00:00 18.5 4 Noroeste 9 Oeste 0 -- -- 83
2018-07-12 00:00:00 18.6 4 Sudoeste 10 Oeste 0 -- -- 82
2018-07-11 23:00:00 18.4 8 Sudoeste 16 Sudoeste 0 -- -- 82
2018-07-11 22:00:00 18.2 11 Sudoeste 22 Sudoeste 0 -- -- 80
2018-07-11 21:00:00 18.8 7 Oeste 15 Oeste 0 -- -- 78
2018-07-11 20:00:00 19.5 3 Sudoeste 14 Nordeste 0 -- -- 80
2018-07-11 19:00:00 20.1 6 Nordeste 17 Este 0 -- -- 77
2018-07-11 18:00:00 21 10 Este 17 Este 0 -- -- 76
2018-07-11 17:00:00 22 10 Este 20 Este 0 -- -- 71
2018-07-11 16:00:00 22 12 Este 21 Este 0 -- -- 74
2018-07-11 15:00:00 21.7 13 Nordeste 22 Este 0 -- -- 73
2018-07-11 14:00:00 21.8 13 Nordeste 19 Este 0 -- -- 74
2018-07-11 13:00:00 21.3 11 Nordeste 16 Norte 0 -- -- 75
2018-07-11 12:00:00 20.6 8 Este 14 Este 0 -- -- 79
2018-07-11 11:00:00 20.3 4 Este 14 Nordeste 0 -- -- 79
2018-07-11 10:00:00 19.3 5 Este 14 Este 0 -- -- 85
2018-07-11 09:00:00 18.8 4 Este 11 Nordeste 0 -- -- 89
2018-07-11 08:00:00 18.5 3 Sudeste 12 Sur 0 -- -- 88
2018-07-11 07:00:00 18.4 6 Sudoeste 11 Sudoeste 0 -- -- 89
2018-07-11 06:00:00 18.3 3 Norte 9 Sudoeste 0 -- -- 90
2018-07-11 05:00:00 18.4 3 Norte 7 Sudoeste 0 -- -- 89
2018-07-11 04:00:00 18.3 2 Oeste 8 Oeste 0 -- -- 90
2018-07-11 03:00:00 17.8 5 Oeste 8 Oeste 0 -- -- 91
2018-07-11 02:00:00 17.9 3 Oeste 8 Sudoeste 0 -- -- 91
2018-07-11 01:00:00 18.1 5 Sudoeste 8 Sudoeste 0 -- -- 90
2018-07-11 00:00:00 18.5 3 Sudoeste 8 Sur 0 -- -- 87
2018-07-10 23:00:00 19 5 Sudoeste 11 Nordeste 0 -- -- 88
2018-07-10 22:00:00 19.1 5 Norte 10 Norte 0 -- -- 87
2018-07-10 21:00:00 19.4 3 Norte 14 Nordeste 0 -- -- 87
2018-07-10 20:00:00 20.1 8 Nordeste 11 Nordeste 0 -- -- 84
2018-07-10 19:00:00 20.6 9 Nordeste 14 Nordeste 0 -- -- 83
2018-07-10 18:00:00 21.6 10 Nordeste 15 Este 0 -- -- 78
2018-07-10 17:00:00 22.1 9 Este 18 Este 0 -- -- 76
2018-07-10 16:00:00 22.9 11 Este 19 Este 0 -- -- 73
2018-07-10 15:00:00 24.4 9 Este 17 Este 0 -- -- 69
2018-07-10 14:00:00 24.1 9 Este 18 Este 0 -- -- 70
2018-07-10 13:00:00 24.3 9 Este 16 Nordeste 0 -- -- 69
2018-07-10 12:00:00 23.5 8 Este 15 Este 0 -- -- 73
2018-07-10 11:00:00 23.1 8 Este 13 Nordeste 0 -- -- 76
2018-07-10 10:00:00 21.4 5 Este 10 Este 0 -- -- 82
2018-07-10 09:00:00 18.9 4 Sudeste 7 Este 0 -- -- 92
2018-07-10 08:00:00 16.7 4 Sur 9 Sudoeste 0 -- -- 87
2018-07-10 07:00:00 17.3 3 Sudoeste 8 Sudoeste 0 -- -- 94
2018-07-10 06:00:00 16.8 4 Sudeste 10 Sudoeste 0 -- -- 91
2018-07-10 05:00:00 17.3 5 Sudoeste 9 Sudoeste 0 -- -- 93
2018-07-10 04:00:00 17 4 Sur 10 Sur 0 -- -- 88
2018-07-10 03:00:00 17.3 4 Sudeste 8 Sur 0 -- -- 90
2018-07-10 02:00:00 17 4 Sur 9 Sudoeste 0 -- -- 86
2018-07-10 01:00:00 17.8 7 Sudoeste 13 Sudoeste 0 -- -- 92
2018-07-10 00:00:00 18.1 5 Sur 13 Sudoeste 0 -- -- 92
2018-07-09 23:00:00 18.4 8 Sudoeste 14 Sudoeste 0 -- -- 90
2018-07-09 22:00:00 19 5 Sudeste 12 Este 0 -- -- 89
2018-07-09 21:00:00 19.5 6 Este 13 Este 0 -- -- 87
2018-07-09 20:00:00 20.1 9 Este 13 Este 0 -- -- 85
2018-07-09 19:00:00 21.1 7 Este 15 Este 0 -- -- 81
2018-07-09 18:00:00 22.4 10 Este 16 Este 0 -- -- 76
2018-07-09 17:00:00 23.2 8 Este 17 Este 0 -- -- 73
2018-07-09 16:00:00 23.2 9 Este 15 Este 0 -- -- 73
2018-07-09 15:00:00 24.2 10 Este 19 Este 0 -- -- 70
2018-07-09 14:00:00 23 12 Este 21 Este 0 -- -- 73
2018-07-09 13:00:00 22.5 11 Este 21 Este 0 -- -- 75
2018-07-09 12:00:00 21.6 13 Este 20 Este 0 -- -- 79
2018-07-09 11:00:00 19.6 7 Sudeste 17 Este 0 -- -- 86
2018-07-09 10:00:00 19.6 9 Sudeste 16 Este 0 -- -- 86
2018-07-09 09:00:00 18.6 8 Sudeste 13 Sur 0 -- -- 90
2018-07-09 08:00:00 17.6 8 Sudoeste 20 Sudoeste 0 -- -- 93
2018-07-09 07:00:00 17.3 9 Sudoeste 17 Sudoeste 0 -- -- 93
2018-07-09 06:00:00 17.3 10 Sudoeste 18 Oeste 0 -- -- 92
2018-07-09 05:00:00 17.4 10 Sudoeste 20 Sudoeste 0 -- -- 90
2018-07-09 04:00:00 17.6 8 Sudoeste 17 Sudoeste 0 -- -- 90
2018-07-09 03:00:00 17.6 11 Sudoeste 21 Sudoeste 0 -- -- 89
2018-07-09 02:00:00 17.8 9 Sudoeste 19 Sudoeste 0 -- -- 88
2018-07-09 01:00:00 17.9 7 Sudoeste 19 Sur 0 -- -- 88
2018-07-09 00:00:00 17.9 10 Sudoeste 18 Sudoeste 0 -- -- 86
2018-07-08 23:00:00 18.6 8 Sudeste 19 Sur 0 -- -- 84
2018-07-08 22:00:00 18.8 8 Sudeste 18 Este 0 -- -- 83
2018-07-08 21:00:00 19.1 8 Sudeste 18 Sudeste 0 -- -- 82
2018-07-08 20:00:00 19.4 9 Sudeste 19 Este 0 -- -- 80
2018-07-08 19:00:00 20.1 9 Este 17 Este 0 -- -- 81
2018-07-08 18:00:00 21.1 12 Este 22 Este 0 -- -- 75
2018-07-08 17:00:00 22 12 Este 22 Este 0 -- -- 72
2018-07-08 16:00:00 21.9 10 Este 24 Este 0 -- -- 71
2018-07-08 15:00:00 22.5 15 Este 25 Este 0 -- -- 68
2018-07-08 14:00:00 22.7 14 Este 26 Este 0 -- -- 69
2018-07-08 13:00:00 22.2 14 Este 25 Nordeste 0 -- -- 68
2018-07-08 12:00:00 20.9 13 Sudeste 24 Sur 0 -- -- 72
2018-07-08 11:00:00 20.2 10 Sudeste 23 Sudeste 0 -- -- 74
2018-07-08 10:00:00 18.8 12 Sur 19 Sudeste 0 -- -- 80
2018-07-08 09:00:00 17.9 10 Sur 21 Sudoeste 0 -- -- 83
2018-07-08 08:00:00 17.3 9 Sur 26 Sudoeste 0 -- -- 85
2018-07-08 07:00:00 17.1 11 Sudoeste 21 Sudoeste 0 -- -- 85
2018-07-08 06:00:00 16.9 9 Sudoeste 23 Sudoeste 0 -- -- 85
2018-07-08 05:00:00 16.7 11 Sudoeste 18 Sudoeste 0 -- -- 86
2018-07-08 04:00:00 16.8 10 Sudoeste 19 Sudoeste 0 -- -- 85
2018-07-08 03:00:00 16.9 13 Sudoeste 24 Sudoeste 0 -- -- 85
2018-07-08 02:00:00 17.4 11 Sudoeste 21 Sudoeste 0 -- -- 81
2018-07-08 01:00:00 17.8 11 Sudoeste 20 Sudeste 0 -- -- 82
2018-07-08 00:00:00 18.1 10 Sudoeste 19 Sudoeste 0 -- -- 82
2018-07-07 23:00:00 18.3 8 Sudoeste 19 Sudoeste 0 -- -- 81
2018-07-07 22:00:00 18.5 8 Sudeste 18 Sudeste 0 -- -- 79
2018-07-07 21:00:00 19.1 12 Este 23 Este 0 -- -- 78
2018-07-07 20:00:00 19.9 9 Este 20 Este 0 -- -- 75
2018-07-07 19:00:00 20.9 14 Este 22 Este 0 -- -- 73
2018-07-07 18:00:00 21.8 11 Este 26 Este 0 -- -- 69
2018-07-07 17:00:00 22.3 13 Este 26 Este 0 -- -- 65
2018-07-07 16:00:00 23.2 18 Este 34 Nordeste 0 -- -- 64
2018-07-07 15:00:00 23.3 14 Este 29 Este 0 -- -- 64
2018-07-07 14:00:00 24 17 Este 31 Este 0 -- -- 61
2018-07-07 13:00:00 24.1 17 Este 27 Este 0 -- -- 60
2018-07-07 12:00:00 23.2 17 Este 26 Este 0 -- -- 64
2018-07-07 11:00:00 19.4 14 Este 21 Este 0 -- -- 75
2018-07-07 10:00:00 18.8 11 Este 17 Este 0 -- -- 77
2018-07-07 09:00:00 18.2 4 Sudeste 29 Sudoeste 0 -- -- 79
2018-07-07 08:00:00 17 15 Sudoeste 20 Sudoeste 0 -- -- 80
2018-07-07 07:00:00 17.6 5 Sudeste 15 Sudoeste 0 -- -- 83
2018-07-07 06:00:00 17.7 9 Sudoeste 21 Sudoeste 0 -- -- 81
2018-07-07 05:00:00 17.8 9 Sudoeste 19 Nordeste 0 -- -- 80
2018-07-07 04:00:00 17.8 10 Este 21 Nordeste 0 -- -- 83
2018-07-07 03:00:00 18.3 4 Sur 20 Este 0 -- -- 81
2018-07-07 02:00:00 18.3 10 Este 21 Este 0 -- -- 81
2018-07-07 01:00:00 18.5 10 Sudoeste 17 Sudoeste 0 -- -- 78
2018-07-07 00:00:00 18.6 6 Sudeste 16 Sudeste 0 -- -- 78
2018-07-06 23:00:00 18.6 6 Sur 14 Este 0 -- -- 77
2018-07-06 22:00:00 18.7 10 Este 16 Sudoeste 0 -- -- 79
2018-07-06 21:00:00 18.8 6 Sudeste 18 Este 0 -- -- 76
2018-07-06 20:00:00 19.4 9 Nordeste 18 Este 0 -- -- 75
2018-07-06 19:00:00 19.8 6 Este 19 Este 0 -- -- 72
2018-07-06 18:00:00 21.1 17 Este 27 Este 0 -- -- 69
2018-07-06 17:00:00 20.7 9 Este 21 Este 0 -- -- 72
2018-07-06 16:00:00 22.1 15 Este 25 Nordeste 0 -- -- 66
2018-07-06 15:00:00 21.4 15 Este 24 Este 0 -- -- 68
2018-07-06 14:00:00 21 12 Este 24 Este 0 -- -- 73
2018-07-06 13:00:00 20.8 11 Este 21 Nordeste 0 -- -- 74
2018-07-06 12:00:00 19.6 8 Sudeste 19 Este 0 -- -- 73
2018-07-06 11:00:00 18.6 8 Este 18 Sudoeste 0 -- -- 79
2018-07-06 10:00:00 18.2 8 Este 17 Este 0 -- -- 79
2018-07-06 09:00:00 17.9 3 Sur 19 Este 0 -- -- 80
2018-07-06 08:00:00 17.7 9 Nordeste 16 Nordeste 0 -- -- 82
2018-07-06 07:00:00 17.9 6 Este 15 Este 0 -- -- 80
2018-07-06 06:00:00 17.9 5 Sudoeste 26 Este 0 -- -- 80
2018-07-06 05:00:00 18.1 11 Sudoeste 22 Sudoeste 0 -- -- 81
2018-07-06 04:00:00 18.1 6 Sudeste 13 Sudoeste 0 -- -- 82
2018-07-06 03:00:00 18.2 6 Sur 17 Este 0 -- -- 82
2018-07-06 02:00:00 18.3 5 Este 16 Este 0 -- -- 79
2018-07-06 01:00:00 18.4 10 Sur 18 Este 0 -- -- 83
2018-07-06 00:00:00 18.6 5 Sur 18 Sudoeste 0 -- -- 78
2018-07-05 23:00:00 18.5 5 Este 17 Este 0 -- -- 86
2018-07-05 22:00:00 18.7 4 Sur 15 Este 0 -- -- 84
2018-07-05 21:00:00 19 12 Este 21 Este 0 -- -- 84
2018-07-05 20:00:00 19.5 8 Este 21 Este 0 -- -- 82
2018-07-05 19:00:00 19.6 14 Este 23 Este 0 -- -- 83
2018-07-05 18:00:00 20.2 9 Este 23 Este 0 -- -- 81
2018-07-05 17:00:00 22.2 14 Este 26 Nordeste 0 -- -- 70
2018-07-05 16:00:00 24.3 17 Este 34 Este 0 -- -- 65
2018-07-05 15:00:00 22.6 17 Este 27 Este 0 -- -- 69
2018-07-05 14:00:00 21.9 14 Este 28 Este 0 -- -- 71
2018-07-05 13:00:00 22 12 Sudeste 23 Este 0 -- -- 64
2018-07-05 12:00:00 21.2 12 Este 25 Este 0 -- -- 68
2018-07-05 11:00:00 19.9 9 Sudeste 21 Este 0 -- -- 70
2018-07-05 10:00:00 18.9 10 Sudeste 22 Este 0 -- -- 76
2018-07-05 09:00:00 18.5 9 Sudeste 22 Este 0 -- -- 82
2018-07-05 08:00:00 18.1 11 Sudeste 20 Sudeste 0 -- -- 86
2018-07-05 07:00:00 17.9 5 Sur 12 Sudeste 0 -- -- 89
2018-07-05 06:00:00 18.1 6 Sudeste 13 Este 0 -- -- 87
2018-07-05 05:00:00 18.1 7 Sudeste 15 Sudeste 0 -- -- 87
2018-07-05 04:00:00 18 6 Sur 19 Este 0 -- -- 88
2018-07-05 03:00:00 18.4 14 Sudoeste 24 Sudoeste 0 -- -- 79
2018-07-05 02:00:00 18.2 8 Sudeste 15 Sudeste 0 -- -- 84
2018-07-05 01:00:00 18.2 8 Sudoeste 24 Oeste 0 -- -- 83
2018-07-05 00:00:00 18.2 11 Sudoeste 20 Sudoeste 0 -- -- 80
2018-07-04 23:00:00 18.1 9 Sudoeste 15 Sudoeste 0 -- -- 82
2018-07-04 22:00:00 18.5 8 Sudeste 18 Sudeste 0 -- -- 83
2018-07-04 21:00:00 19 10 Sudeste 20 Este 0 -- -- 81
2018-07-04 20:00:00 20.1 8 Sudeste 20 Este 0 -- -- 75
2018-07-04 19:00:00 20.9 9 Este 24 Este 0 -- -- 71
2018-07-04 18:00:00 21.1 10 Este 28 Este 0 -- -- 71
2018-07-04 17:00:00 22.6 19 Este 29 Este 0 -- -- 66
2018-07-04 16:00:00 22.5 14 Este 29 Este 0 -- -- 66
2018-07-04 15:00:00 21 13 Este 28 Este 0 -- -- 73
2018-07-04 14:00:00 22.3 17 Este 27 Este 0 -- -- 68
2018-07-04 13:00:00 22.4 13 Sudeste 29 Este 0 -- -- 61
2018-07-04 12:00:00 22.5 18 Este 30 Este 0 -- -- 66
2018-07-04 11:00:00 21 15 Este 26 Este 0 -- -- 71
2018-07-04 10:00:00 19.9 13 Este 21 Sudeste 0 -- -- 75
2018-07-04 09:00:00 18.6 11 Sur 19 Sudeste 0 -- -- 79
2018-07-04 08:00:00 18 9 Sudeste 18 Sudeste 0 -- -- 82
2018-07-04 07:00:00 17.9 11 Sudeste 17 Sudeste 0 -- -- 84
2018-07-04 06:00:00 17.9 9 Sudeste 15 Sudeste 0 -- -- 84
2018-07-04 05:00:00 18 4 Sudeste 13 Sudoeste 0 -- -- 85
2018-07-04 04:00:00 18.2 6 Sudeste 19 Sudoeste 0 -- -- 83
2018-07-04 03:00:00 17.9 7 Sudoeste 15 Sudoeste 0 -- -- 77
2018-07-04 02:00:00 18.3 9 Sudoeste 21 Sudoeste 0 -- -- 76
2018-07-04 01:00:00 18.3 10 Sudoeste 21 Sudoeste 0 -- -- 75
2018-07-04 00:00:00 18.5 6 Sur 13 Sudoeste 0 -- -- 78
2018-07-03 23:00:00 18.5 7 Sudoeste 16 Sudoeste 0 -- -- 81
2018-07-03 22:00:00 18.7 9 Sudoeste 15 Sudoeste 0 -- -- 81
2018-07-03 21:00:00 19.5 10 Este 18 Nordeste 0 -- -- 80
2018-07-03 20:00:00 20.7 4 Noroeste 21 Este 0 -- -- 70
2018-07-03 19:00:00 21.8 10 Este 24 Este 0 -- -- 66
2018-07-03 18:00:00 22.4 9 Nordeste 21 Este 0 -- -- 62
2018-07-03 17:00:00 23.6 13 Este 23 Nordeste 0 -- -- 62
2018-07-03 16:00:00 23.3 14 Este 24 Este 0 -- -- 57
2018-07-03 15:00:00 23.9 12 Este 28 Nordeste 0 -- -- 59
2018-07-03 14:00:00 23.7 15 Este 25 Nordeste 0 -- -- 64
2018-07-03 13:00:00 23 15 Nordeste 25 Nordeste 0 -- -- 66
2018-07-03 12:00:00 20.6 11 Nordeste 20 Nordeste 0 -- -- 76
2018-07-03 11:00:00 22.5 9 Nordeste 20 Nordeste 0 -- -- 60
2018-07-03 10:00:00 21.8 8 Nordeste 14 Nordeste 0 -- -- 64
2018-07-03 09:00:00 20.9 7 Nordeste 13 Este 0 -- -- 70
2018-07-03 08:00:00 18 4 Sur 14 Sudoeste 0 -- -- 78
2018-07-03 07:00:00 17.3 7 Sudoeste 13 Sudoeste 0 -- -- 86
2018-07-03 06:00:00 17.5 3 Sudoeste 9 Sudoeste 0 -- -- 87
2018-07-03 05:00:00 17.4 4 Sudoeste 6 Sudoeste 0 -- -- 86
2018-07-03 04:00:00 17.9 2 Sudeste 14 Sudoeste 0 -- -- 82
2018-07-03 03:00:00 17.5 12 Sudoeste 20 Sudoeste 0 -- -- 80
2018-07-03 02:00:00 17.4 13 Sudoeste 17 Sudoeste 0 -- -- 80
2018-07-03 01:00:00 17.7 11 Sudoeste 15 Sudoeste 0 -- -- 79
2018-07-03 00:00:00 17.9 9 Sudoeste 15 Sudoeste 0 -- -- 78
2018-07-02 23:00:00 18.1 8 Sudoeste 13 Este 0 -- -- 82
2018-07-02 22:00:00 18.2 6 Sudoeste 13 Sudoeste 0 -- -- 79
2018-07-02 21:00:00 18.5 4 Sur 8 Sudoeste 0 -- -- 82
2018-07-02 20:00:00 19.6 7 Este 12 Nordeste 0 -- -- 77
2018-07-02 19:00:00 19.6 8 Nordeste 18 Norte 0 -- -- 78
2018-07-02 18:00:00 20.8 11 Nordeste 20 Nordeste 0 -- -- 74
2018-07-02 17:00:00 20.4 8 Nordeste 18 Norte 0 -- -- 74
2018-07-02 16:00:00 21 8 Nordeste 19 Nordeste 0 -- -- 71
2018-07-02 15:00:00 21 10 Nordeste 21 Nordeste 0 -- -- 76
2018-07-02 14:00:00 20.2 12 Este 22 Este 0 -- -- 77
2018-07-02 13:00:00 19.9 15 Nordeste 22 Nordeste 0 -- -- 81
2018-07-02 12:00:00 20.3 9 Este 17 Este 0 -- -- 81
2018-07-02 11:00:00 19 13 Este 19 Este 0 -- -- 84
2018-07-02 10:00:00 19.3 3 Sur 13 Este 0 -- -- 82
2018-07-02 09:00:00 18.4 0 Calma 6 Sudoeste 0 -- -- 74
2018-07-02 08:00:00 17.5 5 Sudoeste 21 Sudoeste 0 -- -- 74
2018-07-02 07:00:00 16.4 12 Sudoeste 15 Sudoeste 0 -- -- 81
2018-07-02 06:00:00 16.5 10 Oeste 16 Oeste 0 -- -- 76
2018-07-02 05:00:00 16.8 10 Oeste 17 Sudoeste 0 -- -- 74
2018-07-02 04:00:00 16.9 11 Sudoeste 20 Oeste 0 -- -- 75
2018-07-02 03:00:00 16.8 12 Sudoeste 16 Oeste 0 -- -- 78
2018-07-02 02:00:00 17.8 9 Sudoeste 12 Sudoeste 0 -- -- 76
2018-07-02 01:00:00 18 5 Sur 15 Sudoeste 0 -- -- 73
2018-07-02 00:00:00 17.5 7 Sudoeste 19 Sudoeste 0 -- -- 76
2018-07-01 23:00:00 17.2 13 Sudoeste 19 Sudoeste 0 -- -- 77
2018-07-01 22:00:00 17.5 9 Sudoeste 13 Sudoeste 0 -- -- 85
2018-07-01 21:00:00 18.3 8 Norte 16 Norte 0 -- -- 84
2018-07-01 20:00:00 18.9 8 Nordeste 18 Norte 0 -- -- 81
2018-07-01 19:00:00 19.5 11 Nordeste 19 Norte 0 -- -- 80
2018-07-01 18:00:00 20.6 11 Nordeste 21 Norte 0 -- -- 76
2018-07-01 17:00:00 20.2 14 Norte 23 Nordeste 0 -- -- 78
2018-07-01 16:00:00 20.7 16 Nordeste 31 Nordeste 0 -- -- 78
2018-07-01 15:00:00 23.6 12 Nordeste 26 Nordeste 0 -- -- 64
2018-07-01 14:00:00 22.6 14 Nordeste 31 Nordeste 0 -- -- 62
2018-07-01 13:00:00 23.1 17 Nordeste 27 Nordeste 0 -- -- 61
2018-07-01 12:00:00 23 13 Nordeste 26 Nordeste 0 -- -- 57
2018-07-01 11:00:00 22.1 12 Nordeste 23 Nordeste 0 -- -- 66
2018-07-01 10:00:00 21.3 12 Nordeste 23 Norte 0 -- -- 66
2018-07-01 09:00:00 20 9 Norte 14 Norte 0 -- -- 70
2018-07-01 08:00:00 18.6 6 Norte 12 Norte 0 -- -- 83
2018-07-01 07:00:00 17.2 5 Oeste 14 Oeste 0 -- -- 78
2018-07-01 06:00:00 16.8 5 Oeste 13 Oeste 0 -- -- 80
2018-07-01 05:00:00 17.2 7 Sudoeste 16 Sudoeste 0 -- -- 76
2018-07-01 04:00:00 16.9 9 Oeste 15 Oeste 0 -- -- 75
2018-07-01 03:00:00 17.1 9 Oeste 20 Sudoeste 0 -- -- 75
2018-07-01 02:00:00 17.1 13 Sudoeste 20 Oeste 0 -- -- 73
2018-07-01 01:00:00 17.2 8 Oeste 18 Noroeste 0 -- -- 78
2018-07-01 00:00:00 17.7 11 Norte 19 Norte 0 -- -- 86
2018-06-30 23:00:00 17.8 9 Norte 17 Norte 0 -- -- 86
2018-06-30 22:00:00 17.5 5 Noroeste 12 Norte 0 -- -- 81
2018-06-30 21:00:00 18.1 3 Norte 21 Norte 0 -- -- 84
2018-06-30 20:00:00 18.8 14 Norte 24 Norte 0 -- -- 81
2018-06-30 19:00:00 19.1 14 Norte 26 Norte 0 -- -- 80
2018-06-30 18:00:00 20.6 21 Norte 33 Nordeste 0 -- -- 74
2018-06-30 17:00:00 20.2 17 Norte 35 Norte 0 -- -- 72
2018-06-30 16:00:00 20.7 15 Norte 37 Norte 0 -- -- 73
2018-06-30 15:00:00 21.6 12 Norte 40 Norte 0 -- -- 70
2018-06-30 14:00:00 21.2 20 Norte 35 Norte 0 -- -- 69
2018-06-30 13:00:00 20.7 21 Norte 35 Norte 0 -- -- 73
2018-06-30 12:00:00 20 14 Norte 30 Norte 0.2 -- -- 77
2018-06-30 11:00:00 19.7 18 Norte 31 Norte 0 -- -- 74
2018-06-30 10:00:00 20.2 15 Norte 28 Norte 0 -- -- 72
2018-06-30 09:00:00 19.4 19 Norte 30 Norte 0 -- -- 76
2018-06-30 08:00:00 17.5 17 Noroeste 29 Noroeste 0 -- -- 81
2018-06-30 07:00:00 17.9 14 Noroeste 32 Noroeste 0 -- -- 72
2018-06-30 06:00:00 17.5 17 Noroeste 34 Noroeste 0 -- -- 75
2018-06-30 05:00:00 17.5 17 Oeste 33 Oeste 0 -- -- 79
2018-06-30 04:00:00 17.7 15 Noroeste 29 Oeste 0 -- -- 81
2018-06-30 03:00:00 17.5 13 Noroeste 28 Norte 0 -- -- 83
2018-06-30 02:00:00 17.7 13 Noroeste 32 Noroeste 0 -- -- 83
2018-06-30 01:00:00 17.6 17 Oeste 30 Oeste 0 -- -- 82
2018-06-30 00:00:00 17.9 10 Noroeste 28 Noroeste 0 -- -- 82
2018-06-29 23:00:00 18.1 12 Noroeste 28 Noroeste 0 -- -- 78
2018-06-29 22:00:00 18.3 20 Noroeste 34 Noroeste 0 -- -- 77
2018-06-29 21:00:00 18.5 19 Noroeste 29 Noroeste 0 -- -- 78
2018-06-29 20:00:00 19 13 Noroeste 31 Norte 0 -- -- 80
2018-06-29 19:00:00 20.1 18 Norte 33 Norte 0 -- -- 74
2018-06-29 18:00:00 19.6 15 Norte 31 Norte 0 -- -- 79
2018-06-29 17:00:00 20.7 13 Norte 36 Norte 0 -- -- 76
2018-06-29 16:00:00 20.6 26 Norte 40 Norte 0 -- -- 75
2018-06-29 15:00:00 21.6 21 Norte 41 Norte 0.2 -- -- 70
2018-06-29 14:00:00 19.8 21 Norte 42 Norte 0.2 -- -- 85
2018-06-29 13:00:00 22 17 Norte 33 Norte 0 -- -- 74
2018-06-29 12:00:00 21.2 13 Noroeste 30 Norte 0 -- -- 80
2018-06-29 11:00:00 22.1 17 Norte 34 Norte 0 -- -- 74
2018-06-29 10:00:00 21.2 16 Norte 35 Norte 0 -- -- 81
2018-06-29 09:00:00 21.7 8 Sur 42 Oeste 0 -- -- 72
2018-06-29 08:00:00 21.2 17 Noroeste 37 Noroeste 0 -- -- 72
2018-06-29 07:00:00 20.1 17 Noroeste 36 Noroeste 0 -- -- 67
2018-06-29 06:00:00 19.2 11 Nordeste 24 Noroeste 0 -- -- 70
2018-06-29 05:00:00 19.1 10 Oeste 32 Oeste 0 -- -- 80
2018-06-29 04:00:00 19 7 Sudoeste 31 Oeste 0 -- -- 78
2018-06-29 03:00:00 18.6 5 Sudeste 19 Norte 0 -- -- 81
2018-06-29 02:00:00 18.2 6 Sur 14 Sudoeste 0 -- -- 82
2018-06-29 01:00:00 18.5 9 Sudoeste 16 Sudoeste 0 -- -- 81
2018-06-29 00:00:00 18.8 8 Sur 17 Sudoeste 0 -- -- 81
2018-06-28 23:00:00 19.8 7 Norte 27 Oeste 0 -- -- 74
2018-06-28 22:00:00 20.4 15 Noroeste 26 Noroeste 0 -- -- 71
2018-06-28 21:00:00 20.5 9 Noroeste 33 Noroeste 0 -- -- 74
2018-06-28 20:00:00 21.5 17 Noroeste 37 Noroeste 0 -- -- 67
2018-06-28 19:00:00 22.6 18 Noroeste 38 Noroeste 0 -- -- 70
2018-06-28 18:00:00 23.4 16 Norte 28 Norte 0 -- -- 69
2018-06-28 17:00:00 23.1 14 Nordeste 27 Este 0 -- -- 71
2018-06-28 16:00:00 24.4 14 Nordeste 23 Nordeste 0 -- -- 64
2018-06-28 15:00:00 24.3 16 Nordeste 30 Nordeste 0 -- -- 64
2018-06-28 14:00:00 24.1 14 Nordeste 31 Nordeste 0 -- -- 61
2018-06-28 13:00:00 24.4 17 Nordeste 33 Norte 0 -- -- 54
2018-06-28 12:00:00 23.1 25 Norte 37 Norte 0 -- -- 62
2018-06-28 11:00:00 22.5 24 Norte 36 Norte 0 -- -- 68
2018-06-28 10:00:00 21.7 19 Norte 30 Norte 0 -- -- 71
2018-06-28 09:00:00 20.4 14 Norte 24 Norte 0 -- -- 76
2018-06-28 08:00:00 18.7 9 Oeste 18 Norte 0 -- -- 82
2018-06-28 07:00:00 18.1 8 Noroeste 21 Noroeste 0 -- -- 85
2018-06-28 06:00:00 18 9 Noroeste 19 Noroeste 0 -- -- 83
2018-06-28 05:00:00 17.6 10 Noroeste 19 Oeste 0 -- -- 75
2018-06-28 04:00:00 16.9 4 Noroeste 12 Oeste 0 -- -- 86
2018-06-28 03:00:00 17.4 4 Oeste 10 Noroeste 0 -- -- 86
2018-06-28 02:00:00 17.4 4 Norte 11 Norte 0 -- -- 86
2018-06-28 01:00:00 17.7 5 Oeste 13 Oeste 0 -- -- 72
2018-06-28 00:00:00 17.8 8 Sudoeste 14 Sudoeste 0 -- -- 76
2018-06-27 23:00:00 17.6 4 Sudoeste 9 Sudoeste 0 -- -- 86
2018-06-27 22:00:00 17.8 6 Sudoeste 8 Sudoeste 0 -- -- 87
2018-06-27 21:00:00 19 4 Este 14 Este 0 -- -- 80
2018-06-27 20:00:00 20.4 6 Nordeste 17 Este 0 -- -- 73
2018-06-27 19:00:00 21.9 12 Este 27 Nordeste 0 -- -- 65
2018-06-27 18:00:00 22.8 12 Este 26 Este 0 -- -- 58
2018-06-27 17:00:00 23.7 12 Este 21 Nordeste 0 -- -- 58
2018-06-27 16:00:00 24.4 12 Este 22 Este 0 -- -- 58
2018-06-27 15:00:00 24.9 14 Este 31 Este 0 -- -- 60
2018-06-27 14:00:00 24.5 17 Este 25 Este 0 -- -- 61
2018-06-27 13:00:00 22.7 11 Este 26 Este 0 -- -- 67
2018-06-27 12:00:00 22.7 14 Este 24 Este 0 -- -- 67
2018-06-27 11:00:00 21.9 10 Este 20 Este 0 -- -- 69
2018-06-27 10:00:00 18.6 6 Sudeste 13 Sudeste 0 -- -- 82
2018-06-27 09:00:00 17.9 5 Sur 15 Sudoeste 0 -- -- 85
2018-06-27 08:00:00 17.2 10 Sudoeste 18 Sudoeste 0 -- -- 87
2018-06-27 07:00:00 17.2 8 Sudoeste 13 Sudoeste 0 -- -- 89
2018-06-27 06:00:00 16.1 9 Sudoeste 12 Sudoeste 0 -- -- 89
2018-06-27 05:00:00 15.9 4 Sudoeste 8 Sudoeste 0 -- -- 89
2018-06-27 04:00:00 16.2 4 Sudoeste 12 Sudoeste 0 -- -- 89
2018-06-27 03:00:00 16.4 10 Sudoeste 13 Sudoeste 0 -- -- 87
2018-06-27 02:00:00 16.5 12 Sudoeste 14 Sudoeste 0 -- -- 84
2018-06-27 01:00:00 16.9 10 Sudoeste 14 Sudoeste 0 -- -- 87
2018-06-27 00:00:00 17.1 12 Sudoeste 14 Sudoeste 0 -- -- 86
2018-06-26 23:00:00 17.9 10 Sudoeste 14 Sudoeste 0 -- -- 84
2018-06-26 22:00:00 17.6 10 Sudoeste 13 Sudoeste 0 -- -- 85
2018-06-26 21:00:00 18.9 7 Sudeste 13 Sudeste 0 -- -- 85
2018-06-26 20:00:00 19.7 7 Este 21 Este 0 -- -- 80
2018-06-26 19:00:00 20.9 8 Este 21 Este 0 -- -- 75
2018-06-26 18:00:00 21.2 8 Este 20 Este 0 -- -- 74
2018-06-26 17:00:00 21.3 9 Sudeste 25 Este 0 -- -- 76
2018-06-26 16:00:00 22.7 12 Este 24 Este 0 -- -- 68
2018-06-26 15:00:00 23.1 13 Este 24 Este 0 -- -- 65
2018-06-26 14:00:00 23.9 12 Este 25 Este 0 -- -- 64
2018-06-26 13:00:00 23.2 13 Este 24 Este 0 -- -- 64
2018-06-26 12:00:00 22.8 10 Este 26 Este 0 -- -- 63
2018-06-26 11:00:00 23 13 Este 22 Este 0 -- -- 66
2018-06-26 10:00:00 21.6 9 Este 19 Este 0 -- -- 70
2018-06-26 09:00:00 20.5 9 Este 18 Este 0 -- -- 75
2018-06-26 08:00:00 17.8 6 Sur 18 Sur 0 -- -- 81
2018-06-26 07:00:00 17.3 12 Sudoeste 18 Sudoeste 0 -- -- 82
2018-06-26 06:00:00 17 13 Sudoeste 17 Sudoeste 0 -- -- 83
2018-06-26 05:00:00 16.8 12 Sudoeste 17 Sudoeste 0 -- -- 82
2018-06-26 04:00:00 16.9 12 Sudoeste 20 Oeste 0 -- -- 80
2018-06-26 03:00:00 16.5 12 Sudoeste 14 Sudoeste 0 -- -- 78
2018-06-26 02:00:00 16.7 12 Sudoeste 16 Sudoeste 0 -- -- 80
2018-06-26 01:00:00 16.7 10 Sudoeste 15 Sudoeste 0 -- -- 84
2018-06-26 00:00:00 17.1 10 Sudoeste 13 Sudoeste 0 -- -- 81
2018-06-25 23:00:00 17.5 11 Sudoeste 13 Sudoeste 0 -- -- 81
2018-06-25 22:00:00 18.1 6 Sudoeste 8 Sudoeste 0 -- -- 85
2018-06-25 21:00:00 19.5 4 Sudeste 10 Este 0 -- -- 77
2018-06-25 20:00:00 20.1 6 Sudeste 14 Nordeste 0 -- -- 77
2018-06-25 19:00:00 20.5 8 Este 15 Este 0 -- -- 79
2018-06-25 18:00:00 21.1 10 Este 18 Norte 0 -- -- 79
2018-06-25 17:00:00 22.4 12 Este 27 Este 0 -- -- 72
2018-06-25 16:00:00 23.2 8 Este 24 Este 0 -- -- 67
2018-06-25 15:00:00 24.6 13 Este 26 Este 0 -- -- 62
2018-06-25 14:00:00 23.3 16 Este 27 Este 0 -- -- 63
2018-06-25 13:00:00 21.6 10 Este 22 Este 0 -- -- 69
2018-06-25 12:00:00 22.5 10 Este 25 Este 0 -- -- 64
2018-06-25 11:00:00 23.4 13 Este 20 Este 0 -- -- 63
2018-06-25 10:00:00 22.6 9 Este 16 Este 0 -- -- 66
2018-06-25 09:00:00 20.3 6 Este 11 Este 0 -- -- 73
2018-06-25 08:00:00 17.8 6 Sudoeste 14 Sudoeste 0 -- -- 79
2018-06-25 07:00:00 16.5 9 Sudoeste 14 Sudoeste 0 -- -- 81
2018-06-25 06:00:00 16.4 10 Sudoeste 13 Sudoeste 0 -- -- 82
2018-06-25 05:00:00 16.4 7 Sudoeste 11 Oeste 0 -- -- 85
2018-06-25 04:00:00 16.6 5 Sudoeste 10 Oeste 0 -- -- 86
2018-06-25 03:00:00 16.7 9 Sudoeste 12 Sudoeste 0 -- -- 85
2018-06-25 02:00:00 16.9 8 Sudoeste 12 Sudoeste 0 -- -- 85
2018-06-25 01:00:00 17.1 9 Sudoeste 12 Oeste 0 -- -- 85
2018-06-25 00:00:00 17 5 Oeste 9 Oeste 0 -- -- 86
2018-06-24 23:00:00 17.1 7 Sudoeste 10 Sudoeste 0 -- -- 87
2018-06-24 22:00:00 17.6 2 Norte 5 Sudoeste 0 -- -- 85
2018-06-24 21:00:00 18.6 4 Sudoeste 6 Sudoeste 0 -- -- 80
2018-06-24 20:00:00 19.9 4 Nordeste 11 Nordeste 0 -- -- 75
2018-06-24 19:00:00 21.3 9 Nordeste 14 Nordeste 0 -- -- 71
2018-06-24 18:00:00 22.2 6 Nordeste 16 Este 0 -- -- 72
2018-06-24 17:00:00 21.3 9 Este 20 Este 0 -- -- 73
2018-06-24 16:00:00 21.9 13 Este 22 Este 0 -- -- 73
2018-06-24 15:00:00 21.5 9 Este 23 Este 0 -- -- 72
2018-06-24 14:00:00 22.9 11 Este 23 Este 0 -- -- 67
2018-06-24 13:00:00 21.9 12 Este 22 Este 0 -- -- 71
2018-06-24 12:00:00 22 11 Este 21 Este 0 -- -- 71
2018-06-24 11:00:00 21.3 9 Este 15 Este 0 -- -- 73
2018-06-24 10:00:00 21.2 9 Nordeste 14 Nordeste 0 -- -- 74
2018-06-24 09:00:00 19.9 6 Este 11 Nordeste 0 -- -- 76
2018-06-24 08:00:00 16.7 5 Sur 14 Sudoeste 0 -- -- 79
2018-06-24 07:00:00 15.4 10 Sudoeste 14 Sudoeste 0 -- -- 84
2018-06-24 06:00:00 15.6 8 Sudoeste 13 Sudoeste 0 -- -- 88
2018-06-24 05:00:00 15.6 9 Sudoeste 11 Sudoeste 0 -- -- 89
2018-06-24 04:00:00 15.8 5 Sudoeste 9 Sudoeste 0 -- -- 91
2018-06-24 03:00:00 16.2 5 Sudoeste 14 Sudoeste 0 -- -- 90
2018-06-24 02:00:00 16.7 10 Sudoeste 17 Sudoeste 0 -- -- 87
2018-06-24 01:00:00 16.6 8 Sudoeste 12 Sudoeste 0 -- -- 87
2018-06-24 00:00:00 16.7 6 Sudoeste 15 Sudoeste 0 -- -- 86
2018-06-23 23:00:00 17.1 3 Sudoeste 12 Sudoeste 0 -- -- 88
2018-06-23 22:00:00 17.6 6 Sur 13 Oeste 0 -- -- 86
2018-06-23 21:00:00 18.7 4 Sudeste 12 Nordeste 0 -- -- 81
2018-06-23 20:00:00 19.7 8 Norte 27 Norte 0 -- -- 77
2018-06-23 19:00:00 21.1 12 Nordeste 26 Norte 0 -- -- 73
2018-06-23 18:00:00 21.1 11 Nordeste 22 Este 0 -- -- 72
2018-06-23 17:00:00 22.6 11 Nordeste 22 Nordeste 0 -- -- 65
2018-06-23 16:00:00 23.5 13 Nordeste 25 Nordeste 0 -- -- 65
2018-06-23 15:00:00 24.2 17 Nordeste 32 Norte 0 -- -- 63
2018-06-23 14:00:00 23.5 13 Noroeste 39 Noroeste 0 -- -- 61
2018-06-23 13:00:00 24.5 17 Norte 30 Nordeste 0 -- -- 59
2018-06-23 12:00:00 24.2 14 Norte 38 Norte 0 -- -- 58
2018-06-23 11:00:00 23.2 10 Norte 33 Noroeste 0 -- -- 56
2018-06-23 10:00:00 21.9 13 Norte 40 Noroeste 0 -- -- 65
2018-06-23 09:00:00 20 14 Noroeste 45 Oeste 0 -- -- 70
2018-06-23 08:00:00 17.8 12 Noroeste 31 Noroeste 0 -- -- 78
2018-06-23 07:00:00 17.1 15 Norte 30 Oeste 0 -- -- 83
2018-06-23 06:00:00 17 9 Noroeste 29 Norte 0 -- -- 82
2018-06-23 05:00:00 17.4 12 Norte 32 Oeste 0 -- -- 83
2018-06-23 04:00:00 16.7 14 Noroeste 28 Norte 0 -- -- 87
2018-06-23 03:00:00 16.4 8 Norte 19 Norte 0 -- -- 89
2018-06-23 02:00:00 16.9 14 Noroeste 30 Oeste 0 -- -- 85
2018-06-23 01:00:00 16.1 14 Norte 27 Norte 0 -- -- 88
2018-06-23 00:00:00 15.9 5 Oeste 25 Norte 0 -- -- 88
2018-06-22 23:00:00 16.4 15 Norte 25 Norte 0 -- -- 87
2018-06-22 22:00:00 16.9 8 Norte 19 Norte 0 -- -- 86
2018-06-22 21:00:00 17.4 9 Norte 19 Nordeste 0 -- -- 86
2018-06-22 20:00:00 18.4 12 Norte 19 Nordeste 0 -- -- 79
2018-06-22 19:00:00 19.6 12 Nordeste 19 Nordeste 0 -- -- 74
2018-06-22 18:00:00 19.9 11 Nordeste 18 Este 0 -- -- 73
2018-06-22 17:00:00 18.9 8 Norte 17 Norte 0 -- -- 81
2018-06-22 16:00:00 19.7 10 Nordeste 22 Nordeste 0 -- -- 76
2018-06-22 15:00:00 21 14 Nordeste 21 Nordeste 0 -- -- 74
2018-06-22 14:00:00 21 10 Nordeste 19 Norte 0 -- -- 66
2018-06-22 13:00:00 20.7 10 Nordeste 18 Nordeste 0 -- -- 68
2018-06-22 12:00:00 20.7 9 Norte 20 Nordeste 0 -- -- 69
2018-06-22 11:00:00 19 8 Norte 21 Norte 0 -- -- 74
2018-06-22 10:00:00 18 4 Nordeste 13 Nordeste 0 -- -- 78
2018-06-22 09:00:00 17.2 7 Norte 12 Oeste 0 -- -- 85
2018-06-22 08:00:00 17 10 Sudoeste 14 Sudoeste 0 -- -- 84
2018-06-22 07:00:00 16.8 3 Noroeste 8 Noroeste 0 -- -- 85
2018-06-22 06:00:00 16.8 3 Noroeste 10 Norte 0 -- -- 86
2018-06-22 05:00:00 16.9 5 Noroeste 14 Norte 0 -- -- 86
2018-06-22 04:00:00 17.1 5 Noroeste 12 Norte 0 -- -- 86
2018-06-22 03:00:00 17.3 5 Norte 10 Norte 0 -- -- 85
2018-06-22 02:00:00 17.4 4 Noroeste 14 Oeste 0 -- -- 84
2018-06-22 01:00:00 17.3 8 Sudoeste 15 Sudoeste 0 -- -- 83
2018-06-22 00:00:00 17.2 8 Norte 19 Norte 0 -- -- 82
2018-06-21 23:00:00 17.5 10 Norte 16 Oeste 0 -- -- 83
2018-06-21 22:00:00 17.5 8 Oeste 16 Sudoeste 0 -- -- 81
2018-06-21 21:00:00 17.9 6 Nordeste 12 Norte 0 -- -- 78
2018-06-21 20:00:00 18.4 8 Nordeste 17 Nordeste 0 -- -- 76
2018-06-21 19:00:00 18.6 10 Nordeste 17 Nordeste 0 -- -- 79
2018-06-21 18:00:00 19.5 12 Nordeste 23 Nordeste 0 -- -- 78
2018-06-21 17:00:00 21.4 16 Nordeste 34 Nordeste 0 -- -- 71
2018-06-21 16:00:00 21.3 18 Norte 30 Nordeste 0 -- -- 68
2018-06-21 15:00:00 21.9 16 Nordeste 33 Norte 0 -- -- 65
2018-06-21 14:00:00 21.5 18 Nordeste 32 Norte 0 -- -- 65
2018-06-21 13:00:00 18.8 17 Norte 28 Norte 0 -- -- 79
2018-06-21 12:00:00 17.4 12 Norte 27 Nordeste 0 -- -- 89
2018-06-21 11:00:00 18 13 Norte 23 Norte 0 -- -- 81
2018-06-21 10:00:00 17.3 11 Norte 23 Norte 0 -- -- 83
2018-06-21 09:00:00 16.9 14 Norte 22 Norte 0 -- -- 83
2018-06-21 08:00:00 16.7 15 Norte 26 Norte 0 -- -- 86
2018-06-21 07:00:00 16.5 12 Norte 25 Norte 0 -- -- 87
2018-06-21 06:00:00 16.5 12 Norte 23 Norte 0 -- -- 86
2018-06-21 05:00:00 16.6 9 Norte 23 Norte 0 -- -- 87
2018-06-21 04:00:00 16.8 14 Norte 27 Norte 0 -- -- 88
2018-06-21 03:00:00 17.1 10 Norte 17 Norte 0 -- -- 89
2018-06-21 02:00:00 17.3 7 Norte 13 Norte 0 -- -- 87
2018-06-21 01:00:00 17.5 9 Norte 15 Norte 0 -- -- 86
2018-06-21 00:00:00 17.6 6 Oeste 15 Oeste 0 -- -- 85
2018-06-20 23:00:00 17.5 9 Oeste 16 Norte 0 -- -- 85
2018-06-20 22:00:00 17.6 9 Norte 23 Norte 0 -- -- 87
2018-06-20 21:00:00 17.8 14 Norte 22 Norte 0 -- -- 86
2018-06-20 20:00:00 18.2 10 Norte 27 Norte 0 -- -- 81
2018-06-20 19:00:00 18.9 18 Norte 30 Norte 0 -- -- 78
2018-06-20 18:00:00 20 22 Norte 34 Norte 0 -- -- 74
2018-06-20 17:00:00 20.5 18 Norte 31 Norte 0 -- -- 75
2018-06-20 16:00:00 20.4 15 Nordeste 36 Norte 0 -- -- 75
2018-06-20 15:00:00 21.6 19 Nordeste 38 Nordeste 0 -- -- 71
2018-06-20 14:00:00 21.3 17 Nordeste 39 Nordeste 0 -- -- 67
2018-06-20 13:00:00 19.4 16 Norte 23 Norte 0 -- -- 75
2018-06-20 12:00:00 18.5 13 Norte 26 Norte 0 -- -- 79
2018-06-20 11:00:00 18 15 Norte 23 Norte 0 -- -- 82
2018-06-20 10:00:00 17.5 16 Norte 26 Norte 0 -- -- 81
2018-06-20 09:00:00 17 10 Noroeste 23 Noroeste 0 -- -- 83
2018-06-20 08:00:00 16.7 8 Oeste 19 Norte 0 -- -- 83
2018-06-20 07:00:00 16.7 10 Norte 21 Norte 0 -- -- 84
2018-06-20 06:00:00 16.8 6 Norte 13 Noroeste 0 -- -- 84
2018-06-20 05:00:00 16.8 8 Noroeste 14 Norte 0 -- -- 84
2018-06-20 04:00:00 17 7 Norte 14 Norte 0 -- -- 85
2018-06-20 03:00:00 17.1 4 Oeste 14 Sudoeste 0 -- -- 84
2018-06-20 02:00:00 17.1 2 Noroeste 18 Oeste 0 -- -- 85
2018-06-20 01:00:00 17.2 8 Oeste 19 Norte 0 -- -- 84
2018-06-20 00:00:00 17.2 8 Norte 18 Norte 0 -- -- 89
2018-06-19 23:00:00 17.6 3 Norte 14 Oeste 0 -- -- 84
2018-06-19 22:00:00 17.6 8 Oeste 25 Noroeste 0 -- -- 84
2018-06-19 21:00:00 17.6 10 Norte 26 Oeste 0 -- -- 82
2018-06-19 20:00:00 17.8 15 Norte 31 Norte 0 -- -- 83
2018-06-19 19:00:00 19.2 11 Norte 32 Norte 0 -- -- 78
2018-06-19 18:00:00 19.3 19 Norte 31 Noroeste 0 -- -- 76
2018-06-19 17:00:00 19.4 13 Norte 25 Norte 0 -- -- 77
2018-06-19 16:00:00 18.5 14 Norte 23 Norte 0 -- -- 84
2018-06-19 15:00:00 18.7 13 Norte 26 Norte 0 -- -- 85
2018-06-19 14:00:00 19.7 13 Nordeste 19 Norte 0 -- -- 80
2018-06-19 13:00:00 19.3 13 Nordeste 23 Norte 0 -- -- 77
2018-06-19 12:00:00 19.2 15 Norte 24 Norte 0 -- -- 76
2018-06-19 11:00:00 17.9 9 Norte 17 Norte 0 -- -- 91
2018-06-19 10:00:00 18 8 Norte 14 Nordeste 0 -- -- 91
2018-06-19 09:00:00 17.3 6 Norte 15 Norte 0 -- -- 90
2018-06-19 08:00:00 17 14 Sudoeste 19 Sudoeste 0 -- -- 78
2018-06-19 07:00:00 16.9 8 Oeste 14 Oeste 0 -- -- 78
2018-06-19 06:00:00 16.8 10 Sudoeste 15 Sudoeste 0 -- -- 82
2018-06-19 05:00:00 16.8 4 Noroeste 14 Noroeste 0 -- -- 86
2018-06-19 04:00:00 16.7 11 Sudoeste 17 Sudoeste 0 -- -- 80
2018-06-19 03:00:00 16.5 7 Oeste 14 Oeste 0 -- -- 81
2018-06-19 02:00:00 16.9 8 Oeste 18 Oeste 0 -- -- 80
2018-06-19 01:00:00 17 9 Oeste 20 Oeste 0 -- -- 79
2018-06-19 00:00:00 16.9 8 Oeste 24 Norte 0 -- -- 79
2018-06-18 23:00:00 16.9 8 Norte 26 Noroeste 0 -- -- 86
2018-06-18 22:00:00 16.8 14 Noroeste 25 Noroeste 0 -- -- 86
2018-06-18 21:00:00 16.8 12 Noroeste 24 Noroeste 0 -- -- 88
2018-06-18 20:00:00 16.9 11 Norte 23 Norte 0 -- -- 90
2018-06-18 19:00:00 17.5 9 Norte 23 Norte 0 -- -- 88
2018-06-18 18:00:00 18.4 17 Norte 22 Nordeste 0 -- -- 81
2018-06-18 17:00:00 19.1 9 Norte 18 Norte 0 -- -- 79
2018-06-18 16:00:00 20 10 Nordeste 19 Nordeste 0 -- -- 74
2018-06-18 15:00:00 20.1 12 Nordeste 19 Nordeste 0 -- -- 73
2018-06-18 14:00:00 19.8 9 Nordeste 19 Nordeste 0 -- -- 73
2018-06-18 13:00:00 18.9 11 Nordeste 17 Nordeste 0 -- -- 74
2018-06-18 12:00:00 17.7 9 Norte 20 Norte 0 -- -- 81
2018-06-18 11:00:00 17 9 Nordeste 16 Norte 0 -- -- 80
2018-06-18 10:00:00 16.6 9 Nordeste 14 Norte 0 -- -- 82
2018-06-18 09:00:00 16.1 6 Noroeste 15 Noroeste 0 -- -- 84
2018-06-18 08:00:00 15.6 6 Oeste 13 Noroeste 0 -- -- 89
2018-06-18 07:00:00 15.6 5 Noroeste 13 Sudoeste 0 -- -- 91
2018-06-18 06:00:00 15.7 6 Oeste 12 Norte 0 -- -- 88
2018-06-18 05:00:00 15.8 6 Oeste 14 Oeste 0 -- -- 85
2018-06-18 04:00:00 15.9 8 Oeste 14 Sudoeste 0 -- -- 87
2018-06-18 03:00:00 15.9 5 Norte 13 Norte 0 -- -- 88
2018-06-18 02:00:00 15.9 5 Oeste 10 Noroeste 0 -- -- 89
2018-06-18 01:00:00 15.8 5 Sudoeste 17 Sudoeste 0 -- -- 89
2018-06-18 00:00:00 15.8 14 Sudoeste 21 Sudoeste 0 -- -- 84
2018-06-17 23:00:00 15.9 8 Oeste 15 Noroeste 0 -- -- 87
2018-06-17 22:00:00 16.1 8 Noroeste 18 Norte 0 -- -- 89
2018-06-17 21:00:00 16.2 9 Norte 18 Norte 0 -- -- 93
2018-06-17 20:00:00 16.4 8 Noroeste 20 Oeste 0 -- -- 94
2018-06-17 19:00:00 16.4 9 Norte 17 Norte 0 -- -- 95
2018-06-17 18:00:00 16.7 10 Norte 19 Noroeste 0.2 -- -- 95
2018-06-17 17:00:00 16.9 10 Norte 20 Norte 1.2 -- -- 96
2018-06-17 16:00:00 17.3 8 Nordeste 22 Nordeste 1.6 -- -- 96
2018-06-17 15:00:00 17.5 9 Norte 23 Este 1 -- -- 95
2018-06-17 14:00:00 19.8 13 Nordeste 19 Nordeste 0 -- -- 86
2018-06-17 13:00:00 19.3 6 Norte 23 Nordeste 0 -- -- 83
2018-06-17 12:00:00 19.2 5 Norte 17 Nordeste 0 -- -- 84
2018-06-17 11:00:00 19.9 7 Norte 17 Nordeste 0 -- -- 76
2018-06-17 10:00:00 17.9 5 Oeste 25 Sudoeste 0 -- -- 81
2018-06-17 09:00:00 17.2 9 Sudoeste 18 Sudoeste 0 -- -- 79
2018-06-17 08:00:00 16.4 9 Sudoeste 22 Sudoeste 0 -- -- 80
2018-06-17 07:00:00 15.5 10 Sudoeste 14 Sudoeste 0 -- -- 87
2018-06-17 06:00:00 15.8 8 Oeste 17 Sudoeste 0 -- -- 86
2018-06-17 05:00:00 15.3 10 Sudoeste 15 Sudoeste 0 -- -- 85
2018-06-17 04:00:00 15.2 5 Oeste 14 Oeste 0 -- -- 87
2018-06-17 03:00:00 15.1 4 Oeste 10 Sudoeste 0 -- -- 88
2018-06-17 02:00:00 15.2 5 Oeste 14 Sudoeste 0 -- -- 88
2018-06-17 01:00:00 15.5 4 Sudoeste 15 Oeste 0 -- -- 88
2018-06-17 00:00:00 15.4 9 Oeste 16 Oeste 0 -- -- 85